sensor_id;sensor_type;location;lat;lon;timestamp;pressure;altitude;pressure_sealevel;temperature;humidity
13124;BME280;6627;50.920;12.050;2023-05-09T00:02:00;98789.84;;;18.08;41.53
13124;BME280;6627;50.920;12.050;2023-05-09T00:04:27;98860.66;;;18.62;41.05
13124;BME280;6627;50.920;12.050;2023-05-09T00:06:57;98823.38;;;18.45;40.79
13124;BME280;6627;50.920;12.050;2023-05-09T00:09:25;98730.88;;;17.58;42.48
13124;BME280;6627;50.920;12.050;2023-05-09T00:11:54;98802.88;;;18.11;41.85
13124;BME280;6627;50.920;12.050;2023-05-09T00:14:22;98692.13;;;17.44;42.36
13124;BME280;6627;50.920;12.050;2023-05-09T00:16:50;98750.28;;;17.53;43.36
13124;BME280;6627;50.920;12.050;2023-05-09T00:19:18;98769.16;;;17.70;42.71
13124;BME280;6627;50.920;12.050;2023-05-09T00:21:45;98759.63;;;17.76;42.05
13124;BME280;6627;50.920;12.050;2023-05-09T00:24:14;98900.19;;;18.73;41.12
13124;BME280;6627;50.920;12.050;2023-05-09T00:26:41;98794.03;;;18.18;40.67
13124;BME280;6627;50.920;12.050;2023-05-09T00:29:10;98787.53;;;17.94;41.85
13124;BME280;6627;50.920;12.050;2023-05-09T00:31:38;98644.59;;;16.96;42.64
13124;BME280;6627;50.920;12.050;2023-05-09T00:34:05;98752.09;;;17.61;42.87
13124;BME280;6627;50.920;12.050;2023-05-09T00:36:34;98747.72;;;17.72;41.86
13124;BME280;6627;50.920;12.050;2023-05-09T00:39:01;98758.28;;;17.58;42.53
13124;BME280;6627;50.920;12.050;2023-05-09T00:41:29;98801.13;;;17.90;42.20
13124;BME280;6627;50.920;12.050;2023-05-09T00:44:14;98872.72;;;18.45;41.81
13124;BME280;6627;50.920;12.050;2023-05-09T00:46:43;98764.63;;;17.74;41.40
13124;BME280;6627;50.920;12.050;2023-05-09T00:49:10;98583.22;;;16.32;43.91
13124;BME280;6627;50.920;12.050;2023-05-09T00:51:40;98702.81;;;17.08;43.68
13124;BME280;6627;50.920;12.050;2023-05-09T00:54:08;98781.97;;;17.66;42.73
13124;BME280;6627;50.920;12.050;2023-05-09T00:56:37;98862.16;;;18.31;41.69
13124;BME280;6627;50.920;12.050;2023-05-09T00:59:07;98832.78;;;18.16;41.42
13124;BME280;6627;50.920;12.050;2023-05-09T01:01:36;98918.19;;;18.86;40.31
13124;BME280;6627;50.920;12.050;2023-05-09T01:04:06;98826.91;;;18.46;40.05
13124;BME280;6627;50.920;12.050;2023-05-09T01:06:44;98775.47;;;18.11;40.44
13124;BME280;6627;50.920;12.050;2023-05-09T01:09:23;98722.84;;;17.77;41.04
13124;BME280;6627;50.920;12.050;2023-05-09T01:12:11;98826.09;;;18.29;40.78
13124;BME280;6627;50.920;12.050;2023-05-09T01:14:56;98731.19;;;17.69;41.15
13124;BME280;6627;50.920;12.050;2023-05-09T01:17:36;98795.78;;;18.10;40.74
13124;BME280;6627;50.920;12.050;2023-05-09T01:20:13;98693.75;;;17.45;41.30
13124;BME280;6627;50.920;12.050;2023-05-09T01:22:51;98642.78;;;16.87;42.78
13124;BME280;6627;50.920;12.050;2023-05-09T01:25:48;98684.25;;;17.14;42.69
13124;BME280;6627;50.920;12.050;2023-05-09T01:28:35;98648.44;;;17.07;42.20
13124;BME280;6627;50.920;12.050;2023-05-09T01:31:07;98681.75;;;17.09;42.84
13124;BME280;6627;50.920;12.050;2023-05-09T01:33:40;98690.13;;;17.28;42.07
13124;BME280;6627;50.920;12.050;2023-05-09T01:36:15;98630.22;;;16.86;42.17
13124;BME280;6627;50.920;12.050;2023-05-09T01:38:43;98626.84;;;16.77;42.56
13124;BME280;6627;50.920;12.050;2023-05-09T01:41:16;98578.31;;;16.50;42.77
13124;BME280;6627;50.920;12.050;2023-05-09T01:43:47;98588.56;;;16.28;43.68
13124;BME280;6627;50.920;12.050;2023-05-09T01:46:20;98487.13;;;15.56;44.79
13124;BME280;6627;50.920;12.050;2023-05-09T01:48:49;98487.69;;;15.37;45.59
13124;BME280;6627;50.920;12.050;2023-05-09T01:51:20;98570.22;;;15.80;44.96
13124;BME280;6627;50.920;12.050;2023-05-09T01:53:50;98531.16;;;15.55;45.15
13124;BME280;6627;50.920;12.050;2023-05-09T01:56:21;98621.78;;;15.94;44.94
13124;BME280;6627;50.920;12.050;2023-05-09T01:58:52;98772.97;;;17.01;43.26
13124;BME280;6627;50.920;12.050;2023-05-09T02:01:30;98873.28;;;17.82;41.55
13124;BME280;6627;50.920;12.050;2023-05-09T02:03:58;98730.53;;;17.19;41.48
13124;BME280;6627;50.920;12.050;2023-05-09T02:06:27;98874.81;;;18.08;40.67
13124;BME280;6627;50.920;12.050;2023-05-09T02:08:56;98732.06;;;17.45;40.96
13124;BME280;6627;50.920;12.050;2023-05-09T02:11:25;98652.56;;;17.01;41.56
13124;BME280;6627;50.920;12.050;2023-05-09T02:13:53;98776.06;;;17.76;40.46
13124;BME280;6627;50.920;12.050;2023-05-09T02:16:22;98526.44;;;16.13;42.64
13124;BME280;6627;50.920;12.050;2023-05-09T02:18:51;98586.19;;;16.27;42.98
13124;BME280;6627;50.920;12.050;2023-05-09T02:21:19;98630.72;;;16.52;42.85
13124;BME280;6627;50.920;12.050;2023-05-09T02:24:06;98602.03;;;16.21;43.15
13124;BME280;6627;50.920;12.050;2023-05-09T02:26:35;98476.53;;;15.43;43.92
13124;BME280;6627;50.920;12.050;2023-05-09T02:29:05;98632.66;;;16.39;43.32
13124;BME280;6627;50.920;12.050;2023-05-09T02:31:34;98670.91;;;16.63;42.76
13124;BME280;6627;50.920;12.050;2023-05-09T02:34:04;98720.28;;;16.92;42.91
13124;BME280;6627;50.920;12.050;2023-05-09T02:36:35;98795.59;;;17.50;41.43
13124;BME280;6627;50.920;12.050;2023-05-09T02:39:02;98844.50;;;17.88;40.35
13124;BME280;6627;50.920;12.050;2023-05-09T02:41:31;98513.91;;;15.87;42.49
13124;BME280;6627;50.920;12.050;2023-05-09T02:43:58;98622.16;;;16.29;42.83
13124;BME280;6627;50.920;12.050;2023-05-09T02:46:26;98506.13;;;15.53;43.76
13124;BME280;6627;50.920;12.050;2023-05-09T02:48:55;98604.19;;;16.03;43.66
13124;BME280;6627;50.920;12.050;2023-05-09T02:51:24;98675.59;;;16.63;42.41
13124;BME280;6627;50.920;12.050;2023-05-09T02:53:51;98628.22;;;16.34;42.67
13124;BME280;6627;50.920;12.050;2023-05-09T02:56:24;98629.00;;;16.23;43.04
13124;BME280;6627;50.920;12.050;2023-05-09T02:58:52;98551.81;;;15.77;43.27
13124;BME280;6627;50.920;12.050;2023-05-09T03:01:19;98493.78;;;15.22;44.50
13124;BME280;6627;50.920;12.050;2023-05-09T03:03:46;98601.31;;;15.87;43.98
13124;BME280;6627;50.920;12.050;2023-05-09T03:06:13;98579.91;;;15.77;44.09
13124;BME280;6627;50.920;12.050;2023-05-09T03:08:42;98583.34;;;15.86;43.77
13124;BME280;6627;50.920;12.050;2023-05-09T03:11:09;98601.75;;;15.77;44.40
13124;BME280;6627;50.920;12.050;2023-05-09T03:13:37;98594.47;;;15.94;43.39
13124;BME280;6627;50.920;12.050;2023-05-09T03:16:05;98615.00;;;16.00;43.04
13124;BME280;6627;50.920;12.050;2023-05-09T03:18:33;98558.66;;;15.62;43.62
13124;BME280;6627;50.920;12.050;2023-05-09T03:21:00;98609.53;;;16.00;43.04
13124;BME280;6627;50.920;12.050;2023-05-09T03:23:34;98537.63;;;15.50;43.62
13124;BME280;6627;50.920;12.050;2023-05-09T03:26:23;98702.94;;;16.63;42.72
13124;BME280;6627;50.920;12.050;2023-05-09T03:28:51;98643.22;;;16.28;42.44
13124;BME280;6627;50.920;12.050;2023-05-09T03:31:38;98609.97;;;15.89;43.32
13124;BME280;6627;50.920;12.050;2023-05-09T03:34:05;98454.22;;;14.83;44.24
13124;BME280;6627;50.920;12.050;2023-05-09T03:36:38;98569.69;;;15.53;44.23
13124;BME280;6627;50.920;12.050;2023-05-09T03:39:05;98574.81;;;15.55;44.25
13124;BME280;6627;50.920;12.050;2023-05-09T03:41:38;98642.97;;;15.97;43.97
13124;BME280;6627;50.920;12.050;2023-05-09T03:44:06;98532.22;;;15.29;44.38
13124;BME280;6627;50.920;12.050;2023-05-09T03:46:34;98522.94;;;15.09;44.92
13124;BME280;6627;50.920;12.050;2023-05-09T03:49:01;98525.34;;;15.11;44.86
13124;BME280;6627;50.920;12.050;2023-05-09T03:51:29;98581.44;;;15.54;44.52
13124;BME280;6627;50.920;12.050;2023-05-09T03:53:57;98650.56;;;15.79;44.61
13124;BME280;6627;50.920;12.050;2023-05-09T03:56:25;98691.16;;;16.13;44.09
13124;BME280;6627;50.920;12.050;2023-05-09T03:58:53;98824.72;;;17.06;42.40
13124;BME280;6627;50.920;12.050;2023-05-09T04:01:20;98751.41;;;16.87;41.48
13124;BME280;6627;50.920;12.050;2023-05-09T04:03:48;98773.88;;;17.05;41.45
13124;BME280;6627;50.920;12.050;2023-05-09T04:06:17;98847.28;;;17.39;41.59
13124;BME280;6627;50.920;12.050;2023-05-09T04:08:45;98878.06;;;17.85;40.19
13124;BME280;6627;50.920;12.050;2023-05-09T04:11:12;98830.00;;;17.88;39.48
13124;BME280;6627;50.920;12.050;2023-05-09T04:13:39;98694.28;;;17.10;40.65
13124;BME280;6627;50.920;12.050;2023-05-09T04:16:08;98770.59;;;17.52;40.27
13124;BME280;6627;50.920;12.050;2023-05-09T04:18:35;98728.88;;;17.43;39.96
13124;BME280;6627;50.920;12.050;2023-05-09T04:21:04;98718.59;;;17.39;39.84
13124;BME280;6627;50.920;12.050;2023-05-09T04:23:32;98725.88;;;17.48;39.96
13124;BME280;6627;50.920;12.050;2023-05-09T04:25:59;98627.53;;;16.74;41.40
13124;BME280;6627;50.920;12.050;2023-05-09T04:28:26;98741.06;;;17.45;40.81
13124;BME280;6627;50.920;12.050;2023-05-09T04:30:54;98762.22;;;17.85;39.37
13124;BME280;6627;50.920;12.050;2023-05-09T04:33:23;98724.19;;;17.43;40.05
13124;BME280;6627;50.920;12.050;2023-05-09T04:35:50;98827.63;;;18.14;39.34
13124;BME280;6627;50.920;12.050;2023-05-09T04:38:22;98827.09;;;18.53;38.39
13124;BME280;6627;50.920;12.050;2023-05-09T04:40:49;98683.69;;;17.49;39.71
13124;BME280;6627;50.920;12.050;2023-05-09T04:43:17;98692.13;;;17.44;39.87
13124;BME280;6627;50.920;12.050;2023-05-09T04:45:45;98710.84;;;17.42;40.61
13124;BME280;6627;50.920;12.050;2023-05-09T04:48:12;98669.81;;;17.29;40.31
13124;BME280;6627;50.920;12.050;2023-05-09T04:50:41;98789.41;;;18.06;39.80
13124;BME280;6627;50.920;12.050;2023-05-09T04:53:08;98763.91;;;17.89;40.00
13124;BME280;6627;50.920;12.050;2023-05-09T04:55:36;98827.69;;;18.30;39.42
13124;BME280;6627;50.920;12.050;2023-05-09T04:58:04;98784.63;;;18.03;39.70
13124;BME280;6627;50.920;12.050;2023-05-09T05:00:31;98745.56;;;17.65;40.66
13124;BME280;6627;50.920;12.050;2023-05-09T05:02:58;98748.81;;;17.55;41.44
13124;BME280;6627;50.920;12.050;2023-05-09T05:05:25;98894.00;;;18.76;39.64
13124;BME280;6627;50.920;12.050;2023-05-09T05:07:54;98832.16;;;18.51;39.26
13124;BME280;6627;50.920;12.050;2023-05-09T05:10:23;98940.78;;;19.11;39.03
13124;BME280;6627;50.920;12.050;2023-05-09T05:12:51;98911.03;;;18.98;39.19
13124;BME280;6627;50.920;12.050;2023-05-09T05:15:18;98804.34;;;18.36;39.50
13124;BME280;6627;50.920;12.050;2023-05-09T05:17:45;98816.41;;;18.48;39.96
13124;BME280;6627;50.920;12.050;2023-05-09T05:20:12;98863.88;;;18.64;40.26
13124;BME280;6627;50.920;12.050;2023-05-09T05:22:40;98913.00;;;19.13;39.24
13124;BME280;6627;50.920;12.050;2023-05-09T05:25:10;98967.03;;;19.40;39.14
13124;BME280;6627;50.920;12.050;2023-05-09T05:27:38;99029.72;;;19.98;38.25
13124;BME280;6627;50.920;12.050;2023-05-09T05:30:07;98962.28;;;19.69;38.16
13124;BME280;6627;50.920;12.050;2023-05-09T05:32:34;98860.91;;;19.32;38.38
13124;BME280;6627;50.920;12.050;2023-05-09T05:35:02;99049.53;;;20.39;38.54
13124;BME280;6627;50.920;12.050;2023-05-09T05:37:30;98826.03;;;19.01;38.75
13124;BME280;6627;50.920;12.050;2023-05-09T05:39:58;98955.00;;;19.93;38.43
13124;BME280;6627;50.920;12.050;2023-05-09T05:42:26;98946.78;;;20.12;37.72
13124;BME280;6627;50.920;12.050;2023-05-09T05:44:54;98897.19;;;19.73;37.83
13124;BME280;6627;50.920;12.050;2023-05-09T05:47:21;99008.41;;;20.62;36.80
13124;BME280;6627;50.920;12.050;2023-05-09T05:49:48;98862.41;;;19.97;36.93
13124;BME280;6627;50.920;12.050;2023-05-09T05:52:16;98953.22;;;20.55;36.24
13124;BME280;6627;50.920;12.050;2023-05-09T05:54:43;98966.91;;;20.71;36.10
13124;BME280;6627;50.920;12.050;2023-05-09T05:57:11;98874.13;;;20.32;36.32
13124;BME280;6627;50.920;12.050;2023-05-09T05:59:39;98847.34;;;20.29;35.84
13124;BME280;6627;50.920;12.050;2023-05-09T06:02:07;98940.31;;;20.78;36.31
13124;BME280;6627;50.920;12.050;2023-05-09T06:04:35;98914.97;;;20.69;36.36
13124;BME280;6627;50.920;12.050;2023-05-09T06:07:03;98866.59;;;20.49;36.58
13124;BME280;6627;50.920;12.050;2023-05-09T06:09:30;98977.69;;;21.41;34.90
13124;BME280;6627;50.920;12.050;2023-05-09T06:12:05;99062.88;;;21.96;35.05
13124;BME280;6627;50.920;12.050;2023-05-09T06:14:32;99037.94;;;22.11;34.46
13124;BME280;6627;50.920;12.050;2023-05-09T06:17:01;98771.16;;;20.76;35.57
13124;BME280;6627;50.920;12.050;2023-05-09T06:19:28;98745.38;;;20.61;35.40
13124;BME280;6627;50.920;12.050;2023-05-09T06:21:57;98919.69;;;21.57;35.15
13124;BME280;6627;50.920;12.050;2023-05-09T06:24:29;98656.78;;;19.86;36.58
13124;BME280;6627;50.920;12.050;2023-05-09T06:26:57;98828.69;;;21.04;35.23
13124;BME280;6627;50.920;12.050;2023-05-09T06:29:26;98951.50;;;22.04;34.66
13124;BME280;6627;50.920;12.050;2023-05-09T06:31:54;98803.69;;;21.42;34.09
13124;BME280;6627;50.920;12.050;2023-05-09T06:34:22;98996.69;;;22.49;33.57
13124;BME280;6627;50.920;12.050;2023-05-09T06:36:51;98930.28;;;22.34;33.13
13124;BME280;6627;50.920;12.050;2023-05-09T06:39:18;99023.50;;;23.08;33.08
13124;BME280;6627;50.920;12.050;2023-05-09T06:41:46;98889.38;;;22.44;32.90
13124;BME280;6627;50.920;12.050;2023-05-09T06:44:14;98858.44;;;22.27;33.46
13124;BME280;6627;50.920;12.050;2023-05-09T06:46:42;98912.41;;;22.55;33.40
13124;BME280;6627;50.920;12.050;2023-05-09T06:49:09;99285.22;;;25.10;31.67
13124;BME280;6627;50.920;12.050;2023-05-09T06:51:40;99133.03;;;24.90;30.77
13124;BME280;6627;50.920;12.050;2023-05-09T06:54:08;98717.22;;;23.07;31.10
13124;BME280;6627;50.920;12.050;2023-05-09T06:56:35;99008.88;;;24.37;31.65
13124;BME280;6627;50.920;12.050;2023-05-09T06:59:03;98758.69;;;23.14;31.72
13124;BME280;6627;50.920;12.050;2023-05-09T07:01:31;98974.78;;;24.26;31.22
13124;BME280;6627;50.920;12.050;2023-05-09T07:03:59;99127.53;;;26.17;28.11
13124;BME280;6627;50.920;12.050;2023-05-09T07:06:26;98963.34;;;25.83;28.52
13124;BME280;6627;50.920;12.050;2023-05-09T07:08:55;98913.41;;;25.90;27.97
13124;BME280;6627;50.920;12.050;2023-05-09T07:11:22;99208.34;;;27.55;27.20
13124;BME280;6627;50.920;12.050;2023-05-09T07:13:49;99042.38;;;27.16;27.16
13124;BME280;6627;50.920;12.050;2023-05-09T07:16:17;98972.69;;;26.71;28.40
13124;BME280;6627;50.920;12.050;2023-05-09T07:18:48;98973.09;;;27.39;25.88
13124;BME280;6627;50.920;12.050;2023-05-09T07:21:16;99043.59;;;27.81;26.00
13124;BME280;6627;50.920;12.050;2023-05-09T07:23:43;98912.53;;;27.58;25.98
13124;BME280;6627;50.920;12.050;2023-05-09T07:26:12;98720.31;;;26.55;26.94
13124;BME280;6627;50.920;12.050;2023-05-09T07:28:39;98576.53;;;25.66;27.55
13124;BME280;6627;50.920;12.050;2023-05-09T07:31:07;98580.41;;;25.83;27.21
13124;BME280;6627;50.920;12.050;2023-05-09T07:33:35;98971.25;;;27.71;26.33
13124;BME280;6627;50.920;12.050;2023-05-09T07:36:03;98801.69;;;27.08;26.63
13124;BME280;6627;50.920;12.050;2023-05-09T07:38:49;98706.59;;;26.82;26.44
13124;BME280;6627;50.920;12.050;2023-05-09T07:41:21;98545.53;;;25.85;27.01
13124;BME280;6627;50.920;12.050;2023-05-09T07:43:48;98773.19;;;26.97;27.02
13124;BME280;6627;50.920;12.050;2023-05-09T07:46:16;99076.38;;;28.56;26.35
13124;BME280;6627;50.920;12.050;2023-05-09T07:48:44;98763.66;;;26.98;26.62
13124;BME280;6627;50.920;12.050;2023-05-09T07:51:11;98841.72;;;27.62;25.94
13124;BME280;6627;50.920;12.050;2023-05-09T07:53:39;98531.03;;;26.12;26.49
13124;BME280;6627;50.920;12.050;2023-05-09T07:56:07;98764.47;;;26.95;26.85
13124;BME280;6627;50.920;12.050;2023-05-09T07:58:36;98819.06;;;27.64;25.90
13124;BME280;6627;50.920;12.050;2023-05-09T08:01:03;98777.84;;;27.52;25.50
13124;BME280;6627;50.920;12.050;2023-05-09T08:03:31;98798.63;;;27.81;25.28
13124;BME280;6627;50.920;12.050;2023-05-09T08:05:58;98629.13;;;27.26;24.28
13124;BME280;6627;50.920;12.050;2023-05-09T08:08:33;98489.06;;;26.48;25.39
13124;BME280;6627;50.920;12.050;2023-05-09T08:11:00;98667.38;;;27.49;24.73
13124;BME280;6627;50.920;12.050;2023-05-09T08:13:27;98620.28;;;27.34;24.37
13124;BME280;6627;50.920;12.050;2023-05-09T08:15:56;98712.31;;;28.12;23.56
13124;BME280;6627;50.920;12.050;2023-05-09T08:18:23;98785.66;;;28.59;24.05
13124;BME280;6627;50.920;12.050;2023-05-09T08:20:51;98615.03;;;27.98;24.23
13124;BME280;6627;50.920;12.050;2023-05-09T08:23:19;98238.91;;;26.31;24.42
13124;BME280;6627;50.920;12.050;2023-05-09T08:25:46;98556.06;;;27.79;23.80
13124;BME280;6627;50.920;12.050;2023-05-09T08:28:13;98410.53;;;27.32;24.14
13124;BME280;6627;50.920;12.050;2023-05-09T08:30:41;98646.00;;;28.30;24.07
13124;BME280;6627;50.920;12.050;2023-05-09T08:33:10;98679.75;;;28.59;23.58
13124;BME280;6627;50.920;12.050;2023-05-09T08:35:37;98539.22;;;27.63;24.76
13124;BME280;6627;50.920;12.050;2023-05-09T08:38:05;98519.50;;;27.81;23.82
13124;BME280;6627;50.920;12.050;2023-05-09T08:40:34;98604.22;;;28.54;22.95
13124;BME280;6627;50.920;12.050;2023-05-09T08:43:03;98778.56;;;29.09;24.06
13124;BME280;6627;50.920;12.050;2023-05-09T08:45:36;98663.03;;;28.83;23.26
13124;BME280;6627;50.920;12.050;2023-05-09T08:48:07;98375.09;;;27.59;23.28
13124;BME280;6627;50.920;12.050;2023-05-09T08:50:38;98731.09;;;29.32;23.25
13124;BME280;6627;50.920;12.050;2023-05-09T08:53:07;98538.78;;;28.62;22.97
13124;BME280;6627;50.920;12.050;2023-05-09T08:55:34;98528.34;;;28.66;22.92
13124;BME280;6627;50.920;12.050;2023-05-09T08:58:14;98417.63;;;28.07;23.36
13124;BME280;6627;50.920;12.050;2023-05-09T09:00:41;98422.13;;;28.21;22.94
13124;BME280;6627;50.920;12.050;2023-05-09T09:03:10;98515.63;;;28.65;22.73
13124;BME280;6627;50.920;12.050;2023-05-09T09:05:41;98431.81;;;28.36;22.69
13124;BME280;6627;50.920;12.050;2023-05-09T09:08:10;98786.97;;;30.12;22.05
13124;BME280;6627;50.920;12.050;2023-05-09T09:10:40;98621.75;;;29.37;23.16
13124;BME280;6627;50.920;12.050;2023-05-09T09:13:13;98472.47;;;28.73;22.83
13124;BME280;6627;50.920;12.050;2023-05-09T09:15:44;98705.31;;;30.04;22.18
13124;BME280;6627;50.920;12.050;2023-05-09T09:18:20;98799.97;;;30.75;22.31
13124;BME280;6627;50.920;12.050;2023-05-09T09:20:56;98773.31;;;30.86;21.82
13124;BME280;6627;50.920;12.050;2023-05-09T09:23:25;98447.97;;;29.37;22.23
13124;BME280;6627;50.920;12.050;2023-05-09T09:25:57;98490.09;;;29.42;22.43
13124;BME280;6627;50.920;12.050;2023-05-09T09:28:25;98529.56;;;29.61;22.22
13124;BME280;6627;50.920;12.050;2023-05-09T09:30:53;98428.28;;;28.91;22.96
13124;BME280;6627;50.920;12.050;2023-05-09T09:33:23;98616.03;;;29.64;23.51
13124;BME280;6627;50.920;12.050;2023-05-09T09:35:54;98185.19;;;27.55;24.25
13124;BME280;6627;50.920;12.050;2023-05-09T09:38:23;98513.13;;;28.90;23.67
13124;BME280;6627;50.920;12.050;2023-05-09T09:40:53;98615.16;;;29.48;23.59
13124;BME280;6627;50.920;12.050;2023-05-09T09:43:27;98630.47;;;29.39;24.97
13124;BME280;6627;50.920;12.050;2023-05-09T09:45:54;98651.59;;;29.60;24.23
13124;BME280;6627;50.920;12.050;2023-05-09T09:48:27;98596.00;;;29.50;23.75
13124;BME280;6627;50.920;12.050;2023-05-09T09:51:04;98519.38;;;29.34;23.45
13124;BME280;6627;50.920;12.050;2023-05-09T09:53:38;98814.16;;;30.48;24.68
13124;BME280;6627;50.920;12.050;2023-05-09T09:56:06;98586.81;;;29.69;23.08
13124;BME280;6627;50.920;12.050;2023-05-09T09:58:34;98435.81;;;29.11;23.00
13124;BME280;6627;50.920;12.050;2023-05-09T10:01:05;98435.94;;;28.87;23.48
13124;BME280;6627;50.920;12.050;2023-05-09T10:03:38;98747.91;;;30.45;23.21
13124;BME280;6627;50.920;12.050;2023-05-09T10:06:10;98729.59;;;30.44;23.42
13124;BME280;6627;50.920;12.050;2023-05-09T10:08:38;98698.94;;;30.04;24.57
13124;BME280;6627;50.920;12.050;2023-05-09T10:11:06;98628.25;;;30.07;23.70
13124;BME280;6627;50.920;12.050;2023-05-09T10:13:34;98544.34;;;29.41;24.21
13124;BME280;6627;50.920;12.050;2023-05-09T10:16:04;98779.44;;;30.98;22.53
13124;BME280;6627;50.920;12.050;2023-05-09T10:18:35;98696.66;;;30.51;23.22
13124;BME280;6627;50.920;12.050;2023-05-09T10:21:04;98747.41;;;30.66;24.33
13124;BME280;6627;50.920;12.050;2023-05-09T10:23:37;98431.19;;;29.57;22.81
13124;BME280;6627;50.920;12.050;2023-05-09T10:26:16;98925.66;;;31.67;22.93
13124;BME280;6627;50.920;12.050;2023-05-09T10:28:47;98704.34;;;31.25;21.89
13124;BME280;6627;50.920;12.050;2023-05-09T10:31:21;98526.19;;;30.64;21.72
13124;BME280;6627;50.920;12.050;2023-05-09T10:33:53;98493.38;;;30.06;22.88
13124;BME280;6627;50.920;12.050;2023-05-09T10:36:22;98783.47;;;31.58;22.47
13124;BME280;6627;50.920;12.050;2023-05-09T10:38:53;98419.88;;;30.38;21.48
13124;BME280;6627;50.920;12.050;2023-05-09T10:41:21;98428.91;;;30.30;21.63
13124;BME280;6627;50.920;12.050;2023-05-09T10:43:51;98673.38;;;31.74;21.37
13124;BME280;6627;50.920;12.050;2023-05-09T10:46:21;98565.16;;;31.55;20.34
13124;BME280;6627;50.920;12.050;2023-05-09T10:48:49;98363.38;;;30.60;21.18
13124;BME280;6627;50.920;12.050;2023-05-09T10:51:17;98633.31;;;32.03;20.98
13124;BME280;6627;50.920;12.050;2023-05-09T10:53:47;98311.75;;;30.23;22.18
13124;BME280;6627;50.920;12.050;2023-05-09T10:56:29;98465.38;;;31.23;20.81
13124;BME280;6627;50.920;12.050;2023-05-09T10:59:37;98397.41;;;30.97;21.02
13124;BME280;6627;50.920;12.050;2023-05-09T11:02:12;98575.38;;;31.49;21.64
13124;BME280;6627;50.920;12.050;2023-05-09T11:04:41;98455.50;;;31.18;21.07
13124;BME280;6627;50.920;12.050;2023-05-09T11:07:23;98523.72;;;31.50;21.47
13124;BME280;6627;50.920;12.050;2023-05-09T11:09:52;98664.03;;;32.19;21.49
13124;BME280;6627;50.920;12.050;2023-05-09T11:12:23;98587.16;;;31.95;20.93
13124;BME280;6627;50.920;12.050;2023-05-09T11:14:50;98273.81;;;30.76;20.87
13124;BME280;6627;50.920;12.050;2023-05-09T11:17:29;98159.19;;;30.00;21.70
13124;BME280;6627;50.920;12.050;2023-05-09T11:20:03;98309.16;;;30.83;20.55
13124;BME280;6627;50.920;12.050;2023-05-09T11:22:39;98237.88;;;30.36;21.01
13124;BME280;6627;50.920;12.050;2023-05-09T11:25:08;98417.13;;;31.06;21.32
13124;BME280;6627;50.920;12.050;2023-05-09T11:27:41;98110.47;;;29.88;20.95
13124;BME280;6627;50.920;12.050;2023-05-09T11:30:12;98339.78;;;31.12;20.52
13124;BME280;6627;50.920;12.050;2023-05-09T11:32:44;98375.94;;;31.19;20.67
13124;BME280;6627;50.920;12.050;2023-05-09T11:35:14;98446.59;;;31.49;21.10
13124;BME280;6627;50.920;12.050;2023-05-09T11:37:48;98385.31;;;31.25;20.80
13124;BME280;6627;50.920;12.050;2023-05-09T11:40:17;98210.72;;;30.62;20.62
13124;BME280;6627;50.920;12.050;2023-05-09T11:42:48;98490.34;;;31.94;20.33
13124;BME280;6627;50.920;12.050;2023-05-09T11:45:16;98432.97;;;31.85;20.28
13124;BME280;6627;50.920;12.050;2023-05-09T11:47:45;98647.84;;;33.09;19.59
13124;BME280;6627;50.920;12.050;2023-05-09T11:50:15;98193.84;;;31.13;20.22
13124;BME280;6627;50.920;12.050;2023-05-09T11:52:45;98374.28;;;31.69;20.81
13124;BME280;6627;50.920;12.050;2023-05-09T11:55:14;98376.28;;;31.81;20.83
13124;BME280;6627;50.920;12.050;2023-05-09T11:57:48;98383.09;;;31.93;19.75
13124;BME280;6627;50.920;12.050;2023-05-09T12:00:17;98494.59;;;32.33;21.05
13124;BME280;6627;50.920;12.050;2023-05-09T12:02:46;98462.16;;;32.45;20.31
13124;BME280;6627;50.920;12.050;2023-05-09T12:05:16;98425.69;;;32.45;20.01
13124;BME280;6627;50.920;12.050;2023-05-09T12:07:45;97993.31;;;30.66;19.87
13124;BME280;6627;50.920;12.050;2023-05-09T12:10:15;98119.81;;;31.05;19.85
13124;BME280;6627;50.920;12.050;2023-05-09T12:12:47;98324.44;;;32.21;19.36
13124;BME280;6627;50.920;12.050;2023-05-09T12:15:15;98072.72;;;31.04;19.60
13124;BME280;6627;50.920;12.050;2023-05-09T12:17:44;98234.41;;;31.87;19.69
13124;BME280;6627;50.920;12.050;2023-05-09T12:20:13;98351.84;;;32.38;19.42
13124;BME280;6627;50.920;12.050;2023-05-09T12:22:42;98135.44;;;31.59;19.64
13124;BME280;6627;50.920;12.050;2023-05-09T12:25:10;98326.28;;;32.36;20.18
13124;BME280;6627;50.920;12.050;2023-05-09T12:27:40;98342.50;;;32.95;18.54
13124;BME280;6627;50.920;12.050;2023-05-09T12:30:11;98356.19;;;32.93;19.29
13124;BME280;6627;50.920;12.050;2023-05-09T12:32:41;98136.81;;;32.17;18.56
13124;BME280;6627;50.920;12.050;2023-05-09T12:35:09;98135.63;;;31.96;19.16
13124;BME280;6627;50.920;12.050;2023-05-09T12:37:36;97886.94;;;30.92;19.10
13124;BME280;6627;50.920;12.050;2023-05-09T12:40:07;98284.78;;;32.31;20.08
13124;BME280;6627;50.920;12.050;2023-05-09T12:42:43;98217.00;;;32.46;18.39
13124;BME280;6627;50.920;12.050;2023-05-09T12:45:12;97927.69;;;31.02;19.01
13124;BME280;6627;50.920;12.050;2023-05-09T12:47:40;97984.41;;;31.03;19.47
13124;BME280;6627;50.920;12.050;2023-05-09T12:50:11;98292.09;;;32.51;19.16
13124;BME280;6627;50.920;12.050;2023-05-09T12:52:40;98038.03;;;31.54;19.54
13124;BME280;6627;50.920;12.050;2023-05-09T12:55:10;98131.81;;;32.12;19.05
13124;BME280;6627;50.920;12.050;2023-05-09T12:57:39;98227.81;;;32.34;19.69
13124;BME280;6627;50.920;12.050;2023-05-09T13:00:09;97991.19;;;31.46;19.10
13124;BME280;6627;50.920;12.050;2023-05-09T13:02:40;98180.13;;;32.25;19.24
13124;BME280;6627;50.920;12.050;2023-05-09T13:05:10;98142.78;;;32.28;18.98
13124;BME280;6627;50.920;12.050;2023-05-09T13:07:39;98030.47;;;31.64;19.25
13124;BME280;6627;50.920;12.050;2023-05-09T13:10:11;97949.25;;;31.55;18.75
13124;BME280;6627;50.920;12.050;2023-05-09T13:12:40;98118.94;;;32.14;19.19
13124;BME280;6627;50.920;12.050;2023-05-09T13:15:12;98146.38;;;32.29;19.29